Meadow Valley, California
Current Conditions -  °F | °C
As of 7:53 PM on Tuesday 25 Nov 2014 (Local Time) from KOVE Reporting Station
Clear Clear  
Wind Chill: 50°   Ceiling: Unl
Heat Index: 50°   Visibility: 9mi
Dew Point: 44°   Wind: 0mph
Humidity: 80%   Direction: NA
Pressure: 30.39"   Gusts: NA
Location:  39.93°N, 121.06°W
Report Text: KOVE 260353Z AUTO 00000KT 9SM CLR 10/07 A3039 RMK AO2 SLP295 T01000067
Loading
Personal Weather Stations






























Interactive Weather Map New forecast layout! Learn more

10-Day Weather Forecast

Advertisements
Track Severe Weather on mobile